Terminal Aerodrome Forecast
Issued by NWS Wilmington, OH

Current Version | Previous Version | Graphics & Text | Print | Product List | Glossary On
Versions: 1 2 3 4 5 6 7 8 9 10 11 12 13 14 15 16 17 18 19 20 21 22 23 24 25 26 27 28 29 30 31 32
157
FTUS41 KILN 042031 AAA
TAFCVG
TAF AMD
KCVG 042031Z 0421/0524 28011G16KT P6SM VCSH SCT020 OVC070
     FM050100 31011KT P6SM VCSH OVC015
     FM050800 33008KT P6SM VCSH OVC006
     FM051300 35010KT P6SM BKN025
     FM052100 36014KT P6SM SCT040=

USA.gov is the U.S. government's official web portal to all federal, state and local government web resources and services.